^^
Datos históricos de la estación: Murcia-Puente Tocinos
Diario Informe para Septiembre 24, 2019 Unidades:  Ingés    Métrico   Ambas
Diario Semanal Mensual Anual
  Máxima: Mínima: Promedio:
Temperatura: 93.9 °F 73.9 °F 84.6 °F
Punto de rocio: 66.9 °F 48.4 °F 56.8 °F
Humedad: 63% 22% 41%
Velocidad viento: 12.3mph 0mph 5.7mph
Racha viento: 21.9mph - -
Viento- - ESE
Presión: 30 in 29.9 in -
Precipitación: 0 in    
 
 
Tabla de datos para Septiembre 24, 2019
Hora Temperatura Punto de rocio Presión Viento Velocidad viento Racha viento Humedad Intensidad lluvia(por hora) Nubes
00:04 81.9 °F 59.2 °F 30 in NE 4 mph 6.9 mph 46% 0 in
00:09 81.7 °F 58.8 °F 30 in NE 4.7 mph 5.8 mph 46% 0 in
00:14 81.7 °F 58.8 °F 30 in ENE 4.7 mph 5.8 mph 46% 0 in
00:19 81.3 °F 59.2 °F 30 in ENE 4.3 mph 5.8 mph 47% 0 in
00:24 81.3 °F 59.2 °F 30 in NE 4.3 mph 4.6 mph 47% 0 in
00:29 81.1 °F 59 °F 30 in ENE 3.6 mph 5.8 mph 47% 0 in
00:34 81 °F 59.4 °F 30 in NE 3.6 mph 4.6 mph 48% 0 in
00:39 81 °F 59.4 °F 30 in NNO 2.9 mph 1.4 mph 48% 0 in
00:44 81 °F 59.4 °F 30 in NO 2.9 mph 4 mph 48% 0 in
00:49 80.8 °F 59.4 °F 30 in ONO 2.4 mph 3.5 mph 48% 0 in
00:54 80.8 °F 59.4 °F 30 in NO 2.4 mph 2.4 mph 48% 0 in
00:59 80.8 °F 59.4 °F 30 in NNE 2.4 mph 5.8 mph 48% 0 in
01:04 80.6 °F 59.7 °F 30 in NNO 2.4 mph 4.6 mph 49% 0 in
01:09 80.4 °F 59.5 °F 30 in Oeste 2.9 mph 3.6 mph 49% 0 in
01:14 80.4 °F 59.5 °F 30 in NNO 2.9 mph 4.6 mph 49% 0 in
01:19 80.4 °F 59.5 °F 30 in NO 2.4 mph 2.4 mph 49% 0 in
01:24 80.2 °F 59.4 °F 30 in OSO 2.4 mph 4.6 mph 49% 0 in
01:29 80.2 °F 59.4 °F 30 in OSO 2.4 mph 3.1 mph 49% 0 in
01:34 80.4 °F 59.5 °F 30 in OSO 2.4 mph 2.9 mph 49% 0 in
01:39 80.4 °F 59.5 °F 30 in OSO 2 mph 2.3 mph 49% 0 in
01:44 80.4 °F 59.5 °F 30 in OSO 2 mph   49% 0 in
01:49 80.4 °F 58.8 °F 30 in OSO 1.4 mph 3.5 mph 48% 0 in
01:54 80.4 °F 58.8 °F 30 in OSO 1.4 mph 3.5 mph 48% 0 in
01:59 80.4 °F 58.8 °F 30 in OSO 2 mph 2.4 mph 48% 0 in
02:04 80.4 °F 58.8 °F 30 in ENE 2 mph 2.3 mph 48% 0 in
02:09 80.4 °F 58.8 °F 30 in ENE 1.8 mph 3.5 mph 48% 0 in
02:14 80.4 °F 58.8 °F 30 in ENE 1.8 mph 2.3 mph 48% 0 in
02:19 80.4 °F 58.8 °F 30 in ENE 1.4 mph 1.4 mph 48% 0 in
02:24 80.2 °F 59.4 °F 30 in ENE 1.4 mph   49% 0 in
02:29 80.1 °F 59.7 °F 30 in Calm     50% 0 in
02:34 79.7 °F 59.4 °F 30 in Calm   3.1 mph 50% 0 in
02:39 79.5 °F 59.7 °F 30 in SSE 1.4 mph 4.6 mph 51% 0 in
02:44 79.5 °F 59.7 °F 30 in SSE 1.4 mph 2.3 mph 51% 0 in
02:49 79.5 °F 59.7 °F 30 in NO 1.4 mph 3.5 mph 51% 0 in
02:54 79.3 °F 59.5 °F 30 in NO 1.4 mph   51% 0 in
02:59 79.2 °F 59.5 °F 30 in Calm     51% 0 in
03:04 79.2 °F 59.5 °F 30 in Calm     51% 0 in
03:09 79.2 °F 59.5 °F 30 in Calm   3.5 mph 51% 0 in
03:14 79 °F 59.4 °F 30 in Calm   3.5 mph 51% 0 in
03:19 79 °F 59.4 °F 30 in Este 1.4 mph 3.1 mph 51% 0 in
03:24 78.8 °F 59.2 °F 30 in Este 1.4 mph   51% 0 in
03:29 78.6 °F 59.5 °F 30 in Este 1.4 mph   52% 0 in
03:34 78.4 °F 59.4 °F 30 in SSE 1.4 mph 2.4 mph 52% 0 in
03:39 78.4 °F 59.4 °F 30 in SSE 1.8 mph   52% 0 in
03:44 78.4 °F 59.4 °F 30 in SE 1.8 mph 4 mph 52% 0 in
03:49 78.4 °F 59.4 °F 30 in Sur 1.8 mph 4.6 mph 52% 0 in
03:54 78.3 °F 59.2 °F 30 in Sur 1.8 mph 4.7 mph 52% 0 in
03:59 78.3 °F 58.6 °F 30 in SSE 3.1 mph 4.6 mph 51% 0 in
04:04 78.4 °F 58.8 °F 29.9 in Sur 3.1 mph 6.2 mph 51% 0 in
04:09 78.4 °F 58.3 °F 29.9 in SSO 4.3 mph 5.9 mph 50% 0 in
04:14 78.4 °F 57.7 °F 29.9 in SO 4.3 mph 5.8 mph 49% 0 in
04:19 78.4 °F 57.7 °F 30 in SO 4.3 mph 5.8 mph 49% 0 in
04:24 78.6 °F 57.9 °F 30 in SO 4.3 mph 6.9 mph 49% 0 in
04:29 78.6 °F 57.9 °F 30 in OSO 4.3 mph 4.6 mph 49% 0 in
04:34 78.6 °F 57.9 °F 29.9 in SO 4.3 mph 4.6 mph 49% 0 in
04:39 78.6 °F 57.9 °F 29.9 in SO 2.9 mph 2.9 mph 49% 0 in
04:44 78.4 °F 57.7 °F 29.9 in SO 2.9 mph 3.5 mph 49% 0 in
04:49 78.3 °F 57 °F 29.9 in Oeste 1.8 mph 4 mph 48% 0 in
04:54 78.1 °F 56.8 °F 29.9 in Oeste 1.8 mph 3.5 mph 48% 0 in
04:59 77.7 °F 56.5 °F 29.9 in Oeste 2.4 mph 2.9 mph 48% 0 in
05:04 77.5 °F 56.3 °F 29.9 in OSO 2.4 mph 3.5 mph 48% 0 in
05:09 77.5 °F 56.3 °F 29.9 in OSO 2.4 mph 3.6 mph 48% 0 in
05:14 77.5 °F 56.3 °F 29.9 in SO 2.4 mph 3.5 mph 48% 0 in
05:19 77.5 °F 56.3 °F 29.9 in OSO 2.4 mph 3.5 mph 48% 0 in
05:24 77.4 °F 56.1 °F 29.9 in OSO 2.4 mph 4.6 mph 48% 0 in
05:29 77.4 °F 56.1 °F 29.9 in OSO 2 mph 3.5 mph 48% 0 in
05:34 77.5 °F 56.3 °F 29.9 in OSO 2 mph 3.5 mph 48% 0 in
05:39 77.5 °F 56.3 °F 29.9 in OSO 1.8 mph 1.2 mph 48% 0 in
05:44 77.5 °F 57.4 °F 29.9 in OSO 1.8 mph   50% 0 in
05:49 77.4 °F 58.5 °F 29.9 in Calm     52% 0 in
05:54 76.8 °F 58.5 °F 29.9 in Calm     53% 0 in
05:59 76.3 °F 58.5 °F 29.9 in Calm     54% 0 in
06:04 75.7 °F 58.5 °F 29.9 in Calm     55% 0 in
06:09 75.4 °F 58.1 °F 29.9 in Calm     55% 0 in
06:14 75 °F 58.3 °F 29.9 in Calm     56% 0 in
06:19 74.8 °F 58.1 °F 29.9 in Calm   3.1 mph 56% 0 in
06:24 74.5 °F 58.3 °F 29.9 in Calm   4.6 mph 57% 0 in
06:29 74.1 °F 57.4 °F 29.9 in SSE 2.9 mph 5.4 mph 56% 0 in
06:34 73.9 °F 57.4 °F 29.9 in Sur 2.9 mph 5.2 mph 56% 0 in
06:39 73.9 °F 56.8 °F 29.9 in SSE 4 mph 5.2 mph 55% 0 in
06:44 73.9 °F 56.1 °F 29.9 in Sur 4 mph 4.6 mph 54% 0 in
06:49 74.1 °F 55.9 °F 29.9 in SSE 3.6 mph 4.3 mph 53% 0 in
06:54 74.1 °F 55.4 °F 29.9 in Sur 3.6 mph 3.5 mph 52% 0 in
06:59 74.5 °F 55.8 °F 29.9 in SSE 2.9 mph 3.5 mph 52% 0 in
07:04 74.5 °F 55.8 °F 29.9 in SSE 2.9 mph 4.6 mph 52% 0 in
07:09 74.7 °F 55.2 °F 29.9 in Sur 3.1 mph 4.6 mph 51% 0 in
07:14 74.7 °F 54.9 °F 29.9 in SSO 3.1 mph 6.9 mph 50% 0 in
07:19 74.7 °F 54.9 °F 29.9 in SSO 5.2 mph 6.9 mph 50% 0 in
07:24 74.7 °F 54.1 °F 29.9 in Sur 5.2 mph 8.1 mph 49% 0 in
07:29 74.7 °F 54.1 °F 29.9 in SO 5.2 mph 10.4 mph 49% 0 in
07:34 74.7 °F 54.1 °F 29.9 in SO 5.2 mph 6.9 mph 49% 0 in
07:39 74.7 °F 54.1 °F 29.9 in SSO 4.7 mph 4.7 mph 49% 0 in
07:44 74.8 °F 53.8 °F 29.9 in SSO 4.7 mph 4.6 mph 48% 0 in
07:49 74.8 °F 53.8 °F 29.9 in SO 3.6 mph 4.7 mph 48% 0 in
07:54 75 °F 53.4 °F 29.9 in OSO 3.6 mph 5.8 mph 47% 0 in
07:59 75 °F 52.9 °F 29.9 in SSO 4.7 mph 6.9 mph 46% 0 in
08:04 75.2 °F 53.1 °F 29.9 in SSO 4.7 mph 8.1 mph 46% 0 in
08:09 75.4 °F 53.8 °F 29.9 in SO 5.2 mph 8.1 mph 47% 0 in
08:14 75.7 °F 53.4 °F 29.9 in OSO 5.2 mph 6.9 mph 46% 0 in
08:19 75.7 °F 53.4 °F 29.9 in SSO 5.4 mph 9.2 mph 46% 0 in
08:24 75.9 °F 53.6 °F 29.9 in SSO 5.4 mph 8.1 mph 46% 0 in
08:29 76.1 °F 53.2 °F 29.9 in OSO 5.4 mph 7.4 mph 45% 0 in
08:34 76.5 °F 53.4 °F 30 in SO 5.4 mph 6.9 mph 45% 0 in
08:39 76.6 °F 53.8 °F 30 in SO 4.3 mph 5.2 mph 45% 0 in
08:44 76.8 °F 53.2 °F 30 in OSO 4.3 mph 6.9 mph 44% 0 in
08:49 77.2 °F 52.9 °F 30 in OSO 4.3 mph 8.7 mph 43% 0 in
08:54 77.5 °F 53.2 °F 30 in OSO 4.3 mph 5.8 mph 43% 0 in
08:59 77.9 °F 53.1 °F 30 in SSO 4 mph 6.9 mph 42% 0 in
09:04 78.3 °F 53.2 °F 30 in OSO 4 mph 6.9 mph 42% 0 in
09:09 78.6 °F 53.6 °F 30 in SSO 4.3 mph 6.9 mph 42% 0 in
09:14 79.2 °F 53.4 °F 30 in SSO 4.3 mph 9.2 mph 41% 0 in
09:19 79.5 °F 53.8 °F 30 in SO 4.7 mph 5.8 mph 41% 0 in
09:24 79.9 °F 53.4 °F 30 in Sur 4.7 mph 6.9 mph 40% 0 in
09:29 80.1 °F 53.6 °F 30 in OSO 4.7 mph 6.9 mph 40% 0 in
09:34 80.4 °F 54 °F 30 in ONO 4.7 mph 4.6 mph 40% 0 in
09:39 81 °F 54.3 °F 30 in Oeste 2.9 mph 4.6 mph 40% 0 in
09:44 81.1 °F 53.8 °F 30 in Oeste 2.9 mph 5.8 mph 39% 0 in
09:49 81.3 °F 54 °F 30 in SO 4 mph 4.7 mph 39% 0 in
09:54 81.5 °F 54.1 °F 30 in SO 4 mph 8.1 mph 39% 0 in
09:59 81.3 °F 54 °F 30 in OSO 4.7 mph 5.8 mph 39% 0 in
10:04 81.7 °F 53.6 °F 30 in OSO 4.7 mph 6.9 mph 38% 0 in
10:09 81.9 °F 54.5 °F 30 in SO 4 mph 5.8 mph 39% 0 in
10:14 82 °F 54.7 °F 30 in Oeste 4 mph 4.6 mph 39% 0 in
10:19 82.6 °F 55 °F 30 in Sur 4 mph 5.8 mph 39% 0 in
10:24 82.9 °F 54.7 °F 30 in SSE 4 mph 3.5 mph 38% 0 in
10:29 83.5 °F 54.5 °F 30 in SE 2.9 mph 4.6 mph 37% 0 in
10:34 84 °F 54.1 °F 30 in SO 2.9 mph 5.8 mph 36% 0 in
10:39 84.2 °F 54.3 °F 30 in Sur 4 mph 6.9 mph 36% 0 in
10:44 84.6 °F 54.7 °F 30 in Sur 4 mph 6.4 mph 36% 0 in
10:49 84.9 °F 54.1 °F 30 in SSE 4.3 mph 5.8 mph 35% 0 in
10:54 85.3 °F 53.8 °F 30 in SSE 4.3 mph 5.8 mph 34% 0 in
10:59 86 °F 52.7 °F 30 in SO 4.3 mph 4.6 mph 32% 0 in
11:04 86.5 °F 53.2 °F 30 in Sur 3.6 mph 4.6 mph 32% 0 in
11:09 87.1 °F 52.9 °F 30 in OSO 2.9 mph 4.6 mph 31% 0 in
11:14 87.4 °F 49.3 °F 30 in OSO 2.9 mph 5.8 mph 27% 0 in
11:19 88 °F 49.8 °F 30 in ESE 3.1 mph 4.3 mph 27% 0 in
11:24 88.3 °F 49.1 °F 30 in ESE 3.1 mph 3.5 mph 26% 0 in
11:29 88.9 °F 48.6 °F 30 in ESE 3.1 mph 5.2 mph 25% 0 in
11:34 89.1 °F 48.7 °F 30 in ENE 3.1 mph 5.8 mph 25% 0 in
11:39 89.8 °F 49.3 °F 30 in ENE 2.9 mph 4.6 mph 25% 0 in
11:44 90.1 °F 49.6 °F 30 in NE 2.9 mph 6.9 mph 25% 0 in
11:49 90 °F 49.5 °F 30 in North 4 mph 9.2 mph 25% 0 in
11:54 90 °F 49.5 °F 30 in NE 4 mph 5.2 mph 25% 0 in
11:59 90.3 °F 49.6 °F 30 in NNE 4.3 mph 8.1 mph 25% 0 in
12:04 90.3 °F 49.6 °F 29.9 in ENE 4.3 mph 5.8 mph 25% 0 in
12:09 90.9 °F 49.1 °F 29.9 in ENE 4.3 mph 8.5 mph 24% 0 in
12:14 91 °F 49.3 °F 29.9 in ENE 4.3 mph 10 mph 24% 0 in
12:19 91 °F 49.3 °F 29.9 in NE 5.9 mph 9.7 mph 24% 0 in
12:24 91.2 °F 49.5 °F 29.9 in Este 5.9 mph 8.1 mph 24% 0 in
12:29 91.6 °F 50.7 °F 29.9 in NNE 4.7 mph 5.8 mph 25% 0 in
12:34 91.8 °F 49.8 °F 29.9 in Este 4.7 mph 11.5 mph 24% 0 in
12:39 91.8 °F 49.8 °F 29.9 in NE 5.9 mph 8.1 mph 24% 0 in
12:44 92.1 °F 51.3 °F 29.9 in NE 5.9 mph 9.2 mph 25% 0 in
12:49 92.5 °F 50.4 °F 29.9 in Este 5.2 mph 6.2 mph 24% 0 in
12:54 92.7 °F 50.5 °F 29.9 in ENE 5.2 mph 8.1 mph 24% 0 in
12:59 92.7 °F 50.5 °F 29.9 in NE 4.7 mph 8.1 mph 24% 0 in
13:04 92.8 °F 48.4 °F 29.9 in NNE 4.7 mph 13.8 mph 22% 0 in
13:09 93.2 °F 51.1 °F 29.9 in NNE 8.1 mph 10.4 mph 24% 0 in
13:14 93.6 °F 50.2 °F 29.9 in NE 8.1 mph 10.4 mph 23% 0 in
13:19 93.7 °F 51.4 °F 29.9 in NE 8.1 mph 15 mph 24% 0 in
13:24 93.7 °F 51.4 °F 29.9 in NNE 8.1 mph 13.7 mph 24% 0 in
13:29 93.6 °F 51.3 °F 29.9 in Este 8.7 mph 12.7 mph 24% 0 in
13:34 93.7 °F 51.4 °F 29.9 in NE 8.7 mph 10.7 mph 24% 0 in
13:39 93.7 °F 51.4 °F 29.9 in ENE 9.2 mph 16.1 mph 24% 0 in
13:44 93.6 °F 51.3 °F 29.9 in NE 9.2 mph 13.8 mph 24% 0 in
13:49 93.6 °F 50.2 °F 29.9 in Este 10.2 mph 15 mph 23% 0 in
13:54 93.7 °F 50.4 °F 29.9 in ENE 10.2 mph 15 mph 23% 0 in
13:59 93.6 °F 51.3 °F 29.9 in ENE 9.2 mph 12.7 mph 24% 0 in
14:04 93.6 °F 52.5 °F 29.9 in Este 9.2 mph 15 mph 25% 0 in
14:09 93.2 °F 52.2 °F 29.9 in ENE 11.2 mph 18.4 mph 25% 0 in
14:14 92.8 °F 51.8 °F 29.9 in NE 11.2 mph 18.4 mph 25% 0 in
14:19 93 °F 52 °F 29.9 in NNE 12.3 mph 16.1 mph 25% 0 in
14:24 93.4 °F 52.3 °F 29.9 in NNE 12.3 mph 17.3 mph 25% 0 in
14:29 93.4 °F 53.4 °F 29.9 in NE 11.2 mph 18.4 mph 26% 0 in
14:34 93.2 °F 53.2 °F 29.9 in NNE 11.2 mph 17.3 mph 26% 0 in
14:39 93.7 °F 53.8 °F 29.9 in NE 10.7 mph 13.8 mph 26% 0 in
14:44 93.6 °F 53.4 °F 29.9 in ENE 10.7 mph 18.4 mph 26% 0 in
14:49 93.4 °F 53.4 °F 29.9 in NE 10.7 mph 21.9 mph 26% 0 in
14:54 93 °F 52 °F 29.9 in Este 10.7 mph 17.3 mph 25% 0 in
14:59 93.6 °F 53.4 °F 29.9 in ENE 11.8 mph 17.5 mph 26% 0 in
15:04 93.6 °F 53.4 °F 29.9 in NE 11.8 mph 14.7 mph 26% 0 in
15:09 93.2 °F 53.2 °F 29.9 in NE 11.8 mph 17.3 mph 26% 0 in
15:14 93.4 °F 53.4 °F 29.9 in ENE 11.8 mph 17.3 mph 26% 0 in
15:19 93.6 °F 54.7 °F 29.9 in NE 10.2 mph 15 mph 27% 0 in
15:24 93.7 °F 54.7 °F 29.9 in NE 10.2 mph 12.7 mph 27% 0 in
15:29 93.6 °F 54.7 °F 29.9 in Este 8.7 mph 18.4 mph 27% 0 in
15:34 93.7 °F 54.7 °F 29.9 in NE 8.7 mph 15.2 mph 27% 0 in
15:39 93.9 °F 54.9 °F 29.9 in ONO 8.7 mph 17.3 mph 27% 0 in
15:44 93.6 °F 55.6 °F 29.9 in NE 8.7 mph 18.4 mph 28% 0 in
15:49 93.2 °F 55.2 °F 29.9 in ENE 10.7 mph 15 mph 28% 0 in
15:54 93 °F 55 °F 29.9 in NNE 10.7 mph 16.1 mph 28% 0 in
15:59 93.2 °F 56.1 °F 29.9 in NE 11.4 mph 15 mph 29% 0 in
16:04 93.4 °F 55.4 °F 29.9 in NE 11.4 mph 15 mph 28% 0 in
16:09 93.4 °F 56.5 °F 29.9 in Este 10 mph 17.5 mph 29% 0 in
16:14 93 °F 56.1 °F 29.9 in NNO 10 mph 15.2 mph 29% 0 in
16:19 93 °F 57 °F 29.9 in NE 11.2 mph 14 mph 30% 0 in
16:24 92.8 °F 57.7 °F 29.9 in NE 11.2 mph 16.1 mph 31% 0 in
16:29 93 °F 57 °F 29.9 in ENE 10.2 mph 14 mph 30% 0 in
16:34 92.7 °F 55.8 °F 29.9 in NE 10.2 mph 15 mph 29% 0 in
16:39 92.8 °F 55.9 °F 29.9 in NE 10.7 mph 16.1 mph 29% 0 in
16:44 92.7 °F 56.7 °F 29.9 in Este 10.7 mph 15 mph 30% 0 in
16:49 92.8 °F 56.8 °F 29.9 in ENE 11.8 mph 15.2 mph 30% 0 in
16:54 92.5 °F 55.6 °F 29.9 in NE 11.8 mph 16.1 mph 29% 0 in
16:59 92.8 °F 56.8 °F 29.9 in ENE 11.2 mph 15 mph 30% 0 in
17:04 92.8 °F 55.9 °F 29.9 in NE 11.2 mph 18.4 mph 29% 0 in
17:09 92.8 °F 56.8 °F 29.9 in NE 10.2 mph 16.1 mph 30% 0 in
17:14 92.8 °F 56.8 °F 29.9 in ENE 10.2 mph 16.1 mph 30% 0 in
17:19 93 °F 56.1 °F 29.9 in NNE 8.5 mph 10.4 mph 29% 0 in
17:24 92.8 °F 55.9 °F 29.9 in NE 8.5 mph 18.4 mph 29% 0 in
17:29 92.7 °F 55.8 °F 29.9 in NE 10.2 mph 16.8 mph 29% 0 in
17:34 92.8 °F 54.9 °F 29.9 in NE 10.2 mph 13.8 mph 28% 0 in
17:39 93 °F 56.1 °F 29.9 in NE 9.7 mph 16.1 mph 29% 0 in
17:44 92.8 °F 54.9 °F 29.9 in NE 9.7 mph 18.4 mph 28% 0 in
17:49 92.5 °F 54.7 °F 29.9 in NNE 11.2 mph 17.3 mph 28% 0 in
17:54 92.5 °F 54.7 °F 29.9 in ENE 11.2 mph 16.1 mph 28% 0 in
17:59 92.7 °F 54.9 °F 29.9 in ENE 10.7 mph 13.8 mph 28% 0 in
18:04 92.8 °F 54.9 °F 29.9 in Este 10.7 mph 15 mph 28% 0 in
18:09 93 °F 55 °F 29.9 in Este 8.5 mph 15 mph 28% 0 in
18:14 92.8 °F 54 °F 29.9 in NE 8.5 mph 15.2 mph 27% 0 in
18:19 92.5 °F 54.7 °F 29.9 in SE 9.7 mph 15 mph 28% 0 in
18:24 92.5 °F 53.6 °F 29.9 in NNE 9.7 mph 13.8 mph 27% 0 in
18:29 92.7 °F 54.9 °F 29.9 in ENE 9.2 mph 12.7 mph 28% 0 in
18:34 92.1 °F 55.2 °F 29.9 in ENE 9.2 mph 18.4 mph 29% 0 in
18:39 92.1 °F 55.2 °F 29.9 in NE 11.2 mph 12.7 mph 29% 0 in
18:44 91.9 °F 55 °F 29.9 in NE 11.2 mph 17.3 mph 29% 0 in
18:49 91.8 °F 55.9 °F 29.9 in NE 10.7 mph 17.3 mph 30% 0 in
18:54 91.6 °F 56.7 °F 29.9 in ENE 10.7 mph 14 mph 31% 0 in
18:59 91.6 °F 55.8 °F 29.9 in NE 10.7 mph 16.1 mph 30% 0 in
19:04 91.4 °F 55.6 °F 29.9 in NNE 10.7 mph 10 mph 30% 0 in
19:09 91.2 °F 58.1 °F 29.9 in ENE 10.7 mph 17.3 mph 33% 0 in
19:14 91.2 °F 58.1 °F 29.9 in North 10.7 mph 13.8 mph 33% 0 in
19:19 91 °F 57 °F 29.9 in Este 8.7 mph 16.1 mph 32% 0 in
19:24 91 °F 57 °F 29.9 in NE 8.7 mph 14.5 mph 32% 0 in
19:29 90.9 °F 57.7 °F 29.9 in NE 8.5 mph 17.3 mph 33% 0 in
19:34 90.7 °F 59.4 °F 29.9 in NE 8.5 mph 12.7 mph 35% 0 in
19:39 90.1 °F 57.9 °F 29.9 in NE 9.7 mph 15 mph 34% 0 in
19:44 90 °F 60.3 °F 29.9 in NE 9.7 mph 14.5 mph 37% 0 in
19:49 89.8 °F 60.8 °F 29.9 in NNE 9.7 mph 15 mph 38% 0 in
19:54 89.4 °F 59.7 °F 29.9 in NE 9.7 mph 15 mph 37% 0 in
19:59 89.2 °F 61 °F 29.9 in NE 10 mph 13.8 mph 39% 0 in
20:04 89.1 °F 61.5 °F 29.9 in NE 10 mph 12.7 mph 40% 0 in
20:09 88.7 °F 61.3 °F 29.9 in North 9.2 mph 15 mph 40% 0 in
20:14 88.5 °F 60.4 °F 29.9 in NNE 9.2 mph 13.8 mph 39% 0 in
20:19 88.2 °F 60.8 °F 29.9 in NNE 9.7 mph 14.5 mph 40% 0 in
20:24 88.2 °F 61.5 °F 29.9 in NNE 9.7 mph 12.5 mph 41% 0 in
20:29 88 °F 61.3 °F 29.9 in ENE 8.5 mph 13 mph 41% 0 in
20:34 87.6 °F 61.7 °F 29.9 in NE 8.5 mph 13.8 mph 42% 0 in
20:39 87.3 °F 60.6 °F 29.9 in NE 8.7 mph 12.7 mph 41% 0 in
20:44 87.1 °F 60.4 °F 29.9 in NNE 8.7 mph 10.4 mph 41% 0 in
20:49 86.7 °F 61.5 °F 29.9 in NE 7.6 mph 9.2 mph 43% 0 in
20:54 86.4 °F 61.9 °F 29.9 in NE 7.6 mph 9.2 mph 44% 0 in
20:59 86.2 °F 62.2 °F 29.9 in NE 7.6 mph 8.1 mph 45% 0 in
21:04 85.8 °F 63.3 °F 29.9 in Este 7.6 mph 10 mph 47% 0 in
21:09 85.5 °F 63 °F 29.9 in NNE 6.9 mph 9.2 mph 47% 0 in
21:14 85.1 °F 62.6 °F 29.9 in NE 6.9 mph 10.4 mph 47% 0 in
21:19 84.9 °F 63 °F 29.9 in ENE 7.6 mph 11.5 mph 48% 0 in
21:24 84.7 °F 63 °F 29.9 in ENE 7.6 mph 6.9 mph 48% 0 in
21:29 84.6 °F 62.8 °F 29.9 in NE 5.4 mph 8.1 mph 48% 0 in
21:34 84.4 °F 61.9 °F 29.9 in NE 5.4 mph 8.1 mph 47% 0 in
21:39 84.4 °F 61.9 °F 29.9 in Este 5.9 mph 6.9 mph 47% 0 in
21:44 84 °F 61.5 °F 29.9 in NE 5.9 mph 6.9 mph 47% 0 in
21:49 83.8 °F 62.1 °F 29.9 in Este 4.7 mph 6.9 mph 48% 0 in
21:54 83.7 °F 61.9 °F 29.9 in NE 4.7 mph 6.9 mph 48% 0 in
21:59 83.5 °F 62.2 °F 29.9 in NE 4.3 mph 6.9 mph 49% 0 in
22:04 83.5 °F 63 °F 29.9 in ENE 4.3 mph 5.8 mph 50% 0 in
22:09 83.1 °F 62.6 °F 29.9 in ENE 4.3 mph 8.1 mph 50% 0 in
22:14 82.9 °F 63 °F 29.9 in ENE 4.3 mph 6.9 mph 51% 0 in
22:19 82.8 °F 63.3 °F 29.9 in NNE 5.2 mph 10.4 mph 52% 0 in
22:24 82.6 °F 63.7 °F 29.9 in ENE 5.2 mph 8.1 mph 53% 0 in
22:29 82.4 °F 64 °F 29.9 in NE 5.2 mph 8.1 mph 54% 0 in
22:34 82.2 °F 64.4 °F 29.9 in NNE 5.2 mph 8.1 mph 55% 0 in
22:39 82 °F 64.8 °F 29.9 in NE 5.2 mph 9.2 mph 56% 0 in
22:44 81.9 °F 65.1 °F 29.9 in NNE 5.2 mph 6.9 mph 57% 0 in
22:49 81.7 °F 66 °F 29.9 in NE 4.7 mph 9.2 mph 59% 0 in
22:54 81.3 °F 66 °F 29.9 in ENE 4.7 mph 8.1 mph 60% 0 in
22:59 81.1 °F 66.4 °F 29.9 in ESE 5.9 mph 9.2 mph 61% 0 in
23:04 81 °F 66.7 °F 29.9 in NE 5.9 mph 9.2 mph 62% 0 in
23:09 80.8 °F 66.6 °F 29.9 in Este 5.2 mph 8.1 mph 62% 0 in
23:14 80.8 °F 66.9 °F 29.9 in NNE 5.2 mph 8.1 mph 63% 0 in
23:19 80.6 °F 66.7 °F 29.9 in NE 4.3 mph 6.9 mph 63% 0 in
23:24 80.6 °F 66.7 °F 29.9 in ENE 4.3 mph 8.5 mph 63% 0 in
23:29 80.4 °F 66.7 °F 29.9 in ENE 5.2 mph 5.8 mph 63% 0 in
23:34 80.4 °F 66.7 °F 29.9 in Este 5.2 mph 6.9 mph 63% 0 in
23:39 80.4 °F 66.7 °F 29.9 in ENE 3.6 mph 4.7 mph 63% 0 in
23:44 80.4 °F 66.7 °F 29.9 in NE 3.6 mph 5.8 mph 63% 0 in
23:49 80.4 °F 66.7 °F 29.9 in NE 3.6 mph 5.8 mph 63% 0 in
23:54 80.2 °F 66.6 °F 29.9 in NE 3.6 mph 6.9 mph 63% 0 in
23:59 80.2 °F 66.6 °F 29.9 in Este 4.3 mph 8.1 mph 63% 0 in
Murcia-Puente Tocinos, España
Compliments of Weather Underground - 2.75 mb

La estación de MeteoMurcia.com, publica sus datos en los siguientes proyectos:

Weather Underground PWS IMURCIAP2 Meteoclimatic www.awekas.at

W3Counter
Web Analytics